Hovedside
METAR-TAF:

METAR-TAF

Lufthavner :

Ronneby lufthavn

Ronneby, Sverige

breddegrad: 56-16N, lengdegrad: 015-17E, høyde over havet: 58 m

Gjeldene værobservasjon

Denne rapporten ble laget for 18 minutter siden, klokken 14:20 UTC
Vind 7 kt fra Nordvest
Temperatur 24°C
Luftfuktighet 78%
Trykk 1011 hPa
Sikt 10 km eller mer
ingen skyer under 1500 m og ingen bygeskyer

METAR: ESDF 181420Z 31007KT CAVOK 24/20 Q1011

Tid: 16:38 (14:38 UTC)

Varsel

Denne rapporten ble laget for 8 minutter siden, klokken 14:30 UTC
Varsel gyldig fra 18. klokken 15 UTC til 18. klokken 22 UTC
Vind 7 kt fra Nordvest
Sikt 10 km eller mer
lett regn
Midlertidig
fra 18. klokken 15 UTC til 18. klokken 22 UTC
Brutte skyer i en høyde av 5000 ft, Bygeskyer.
regnbyger

TAF: ESDF 181430Z 1815/1822 32007KT 9999 -RA NSC TEMPO 1815/1822 SHRA BKN050CB

Værobservasjoner og værvarsel for over 4000 flyplasser (METAR- og TAF-rapporter).

Tilgjengelige stasjoner er representert av de røde og gule prikkene på kartet.

Hold musepekeren over prikken for å se navnet på stasjonen.

Klikk så for å se værobservasjoner og -varsler.

For å forandre kartet kan du klikke på den grønne knappen med svart kryss for å zoome inn, på den grønne knappen med strek for å zoome ut, eller på de grønne pilene for å se tilstøtende kart.


METAR-TAF: